sensor_id;sensor_type;location;lat;lon;timestamp;temperature;humidity
12827;DHT22;66927;48.812;9.118;2023-04-01T00:02:01;8.80;99.90
12827;DHT22;66927;48.812;9.118;2023-04-01T00:04:26;8.70;99.90
12827;DHT22;66927;48.812;9.118;2023-04-01T00:06:52;8.90;99.90
12827;DHT22;66927;48.812;9.118;2023-04-01T00:09:18;8.80;99.90
12827;DHT22;66927;48.812;9.118;2023-04-01T00:11:43;8.90;99.90
12827;DHT22;66927;48.812;9.118;2023-04-01T00:14:11;8.90;99.90
12827;DHT22;66927;48.812;9.118;2023-04-01T00:16:37;8.90;99.90
12827;DHT22;66927;48.812;9.118;2023-04-01T00:19:02;8.90;99.90
12827;DHT22;66927;48.812;9.118;2023-04-01T00:21:28;9.00;99.90
12827;DHT22;66927;48.812;9.118;2023-04-01T00:23:54;9.00;99.90
12827;DHT22;66927;48.812;9.118;2023-04-01T00:26:20;9.00;99.90
12827;DHT22;66927;48.812;9.118;2023-04-01T00:28:47;9.00;99.90
12827;DHT22;66927;48.812;9.118;2023-04-01T00:31:13;9.00;99.90
12827;DHT22;66927;48.812;9.118;2023-04-01T00:33:41;8.90;99.90
12827;DHT22;66927;48.812;9.118;2023-04-01T00:36:15;8.90;99.90
12827;DHT22;66927;48.812;9.118;2023-04-01T00:38:41;9.00;99.90
12827;DHT22;66927;48.812;9.118;2023-04-01T00:41:09;9.00;99.90
12827;DHT22;66927;48.812;9.118;2023-04-01T00:43:40;9.00;99.90
12827;DHT22;66927;48.812;9.118;2023-04-01T00:46:06;9.00;99.90
12827;DHT22;66927;48.812;9.118;2023-04-01T00:48:38;9.00;99.90
12827;DHT22;66927;48.812;9.118;2023-04-01T00:51:08;9.00;99.90
12827;DHT22;66927;48.812;9.118;2023-04-01T00:53:40;9.00;99.90
12827;DHT22;66927;48.812;9.118;2023-04-01T00:56:17;9.10;99.90
12827;DHT22;66927;48.812;9.118;2023-04-01T00:58:47;9.10;99.90
12827;DHT22;66927;48.812;9.118;2023-04-01T01:01:14;9.10;99.90
12827;DHT22;66927;48.812;9.118;2023-04-01T01:03:40;9.10;99.90
12827;DHT22;66927;48.812;9.118;2023-04-01T01:11:44;9.10;99.90
12827;DHT22;66927;48.812;9.118;2023-04-01T01:25:07;9.00;99.90
12827;DHT22;66927;48.812;9.118;2023-04-01T01:27:39;9.00;99.90
12827;DHT22;66927;48.812;9.118;2023-04-01T01:30:18;9.10;99.90
12827;DHT22;66927;48.812;9.118;2023-04-01T01:33:13;9.00;99.90
12827;DHT22;66927;48.812;9.118;2023-04-01T01:35:50;9.00;99.90
12827;DHT22;66927;48.812;9.118;2023-04-01T01:38:23;9.10;99.90
12827;DHT22;66927;48.812;9.118;2023-04-01T01:40:50;9.10;99.90
12827;DHT22;66927;48.812;9.118;2023-04-01T01:43:22;9.10;99.90
12827;DHT22;66927;48.812;9.118;2023-04-01T01:45:55;9.10;99.90
12827;DHT22;66927;48.812;9.118;2023-04-01T01:48:23;9.10;99.90
12827;DHT22;66927;48.812;9.118;2023-04-01T01:50:51;9.10;99.90
12827;DHT22;66927;48.812;9.118;2023-04-01T01:53:17;9.10;99.90
12827;DHT22;66927;48.812;9.118;2023-04-01T01:55:44;9.00;99.90
12827;DHT22;66927;48.812;9.118;2023-04-01T01:58:39;9.00;99.90
12827;DHT22;66927;48.812;9.118;2023-04-01T02:01:09;8.90;99.90
12827;DHT22;66927;48.812;9.118;2023-04-01T02:03:38;8.80;99.90
12827;DHT22;66927;48.812;9.118;2023-04-01T02:06:07;8.80;99.90
12827;DHT22;66927;48.812;9.118;2023-04-01T02:08:38;8.80;99.90
12827;DHT22;66927;48.812;9.118;2023-04-01T02:11:08;8.80;99.90
12827;DHT22;66927;48.812;9.118;2023-04-01T02:13:51;8.70;99.90
12827;DHT22;66927;48.812;9.118;2023-04-01T02:16:24;8.70;99.90
12827;DHT22;66927;48.812;9.118;2023-04-01T02:18:53;8.70;99.90
12827;DHT22;66927;48.812;9.118;2023-04-01T02:21:22;8.70;99.90
12827;DHT22;66927;48.812;9.118;2023-04-01T02:23:52;8.70;99.90
12827;DHT22;66927;48.812;9.118;2023-04-01T02:26:18;8.70;99.90
12827;DHT22;66927;48.812;9.118;2023-04-01T02:28:46;8.70;99.90
12827;DHT22;66927;48.812;9.118;2023-04-01T02:31:14;8.80;99.90
12827;DHT22;66927;48.812;9.118;2023-04-01T02:33:40;8.90;99.90
12827;DHT22;66927;48.812;9.118;2023-04-01T02:36:10;8.80;99.90
12827;DHT22;66927;48.812;9.118;2023-04-01T02:38:36;8.90;99.90
12827;DHT22;66927;48.812;9.118;2023-04-01T02:41:03;8.80;99.90
12827;DHT22;66927;48.812;9.118;2023-04-01T02:43:30;8.80;99.90
12827;DHT22;66927;48.812;9.118;2023-04-01T02:45:56;8.80;99.90
12827;DHT22;66927;48.812;9.118;2023-04-01T02:48:21;8.70;99.90
12827;DHT22;66927;48.812;9.118;2023-04-01T02:50:47;8.70;99.90
12827;DHT22;66927;48.812;9.118;2023-04-01T02:53:13;8.70;99.90
12827;DHT22;66927;48.812;9.118;2023-04-01T02:55:38;8.60;99.90
12827;DHT22;66927;48.812;9.118;2023-04-01T02:58:04;8.60;99.90
12827;DHT22;66927;48.812;9.118;2023-04-01T03:00:30;8.60;99.90
12827;DHT22;66927;48.812;9.118;2023-04-01T03:02:56;8.60;99.90
12827;DHT22;66927;48.812;9.118;2023-04-01T03:05:22;8.60;99.90
12827;DHT22;66927;48.812;9.118;2023-04-01T03:07:47;8.60;99.90
12827;DHT22;66927;48.812;9.118;2023-04-01T03:10:13;8.60;99.90
12827;DHT22;66927;48.812;9.118;2023-04-01T03:12:39;8.70;99.90
12827;DHT22;66927;48.812;9.118;2023-04-01T03:15:06;8.60;99.90
12827;DHT22;66927;48.812;9.118;2023-04-01T03:17:32;8.60;99.90
12827;DHT22;66927;48.812;9.118;2023-04-01T03:19:58;8.60;99.90
12827;DHT22;66927;48.812;9.118;2023-04-01T03:22:25;8.60;99.90
12827;DHT22;66927;48.812;9.118;2023-04-01T03:24:51;8.60;99.90
12827;DHT22;66927;48.812;9.118;2023-04-01T03:27:17;8.60;99.90
12827;DHT22;66927;48.812;9.118;2023-04-01T03:29:43;8.60;99.90
12827;DHT22;66927;48.812;9.118;2023-04-01T03:32:08;8.50;99.90
12827;DHT22;66927;48.812;9.118;2023-04-01T03:34:34;8.50;99.90
12827;DHT22;66927;48.812;9.118;2023-04-01T03:37:02;8.50;99.90
12827;DHT22;66927;48.812;9.118;2023-04-01T03:39:28;8.60;99.90
12827;DHT22;66927;48.812;9.118;2023-04-01T03:41:53;8.50;99.90
12827;DHT22;66927;48.812;9.118;2023-04-01T03:44:19;8.60;99.90
12827;DHT22;66927;48.812;9.118;2023-04-01T03:46:45;8.50;99.90
12827;DHT22;66927;48.812;9.118;2023-04-01T03:49:11;8.60;99.90
12827;DHT22;66927;48.812;9.118;2023-04-01T03:51:41;8.50;99.90
12827;DHT22;66927;48.812;9.118;2023-04-01T03:54:08;8.50;99.90
12827;DHT22;66927;48.812;9.118;2023-04-01T03:56:33;8.50;99.90
12827;DHT22;66927;48.812;9.118;2023-04-01T03:59:03;8.50;99.90
12827;DHT22;66927;48.812;9.118;2023-04-01T04:01:29;8.50;99.90
12827;DHT22;66927;48.812;9.118;2023-04-01T04:03:55;8.40;99.90
12827;DHT22;66927;48.812;9.118;2023-04-01T04:06:21;8.40;99.90
12827;DHT22;66927;48.812;9.118;2023-04-01T04:08:47;8.30;99.90
12827;DHT22;66927;48.812;9.118;2023-04-01T04:11:13;8.30;99.90
12827;DHT22;66927;48.812;9.118;2023-04-01T04:13:39;8.30;99.90
12827;DHT22;66927;48.812;9.118;2023-04-01T04:16:05;8.30;99.90
12827;DHT22;66927;48.812;9.118;2023-04-01T04:18:30;8.30;99.90
12827;DHT22;66927;48.812;9.118;2023-04-01T04:20:56;8.40;99.90
12827;DHT22;66927;48.812;9.118;2023-04-01T04:23:22;8.40;99.90
12827;DHT22;66927;48.812;9.118;2023-04-01T04:25:56;8.30;99.90
12827;DHT22;66927;48.812;9.118;2023-04-01T04:28:22;8.30;99.90
12827;DHT22;66927;48.812;9.118;2023-04-01T04:30:48;8.30;99.90
12827;DHT22;66927;48.812;9.118;2023-04-01T04:33:13;8.30;99.90
12827;DHT22;66927;48.812;9.118;2023-04-01T04:35:39;8.30;99.90
12827;DHT22;66927;48.812;9.118;2023-04-01T04:38:04;8.30;99.90
12827;DHT22;66927;48.812;9.118;2023-04-01T04:40:30;8.30;99.90
12827;DHT22;66927;48.812;9.118;2023-04-01T04:42:55;8.20;99.90
12827;DHT22;66927;48.812;9.118;2023-04-01T04:45:21;8.20;99.90
12827;DHT22;66927;48.812;9.118;2023-04-01T04:47:47;8.30;99.90
12827;DHT22;66927;48.812;9.118;2023-04-01T04:50:13;8.30;99.90
12827;DHT22;66927;48.812;9.118;2023-04-01T04:52:38;8.30;99.90
12827;DHT22;66927;48.812;9.118;2023-04-01T04:55:04;8.30;99.90
12827;DHT22;66927;48.812;9.118;2023-04-01T04:57:30;8.30;99.90
12827;DHT22;66927;48.812;9.118;2023-04-01T04:59:56;8.30;99.90
12827;DHT22;66927;48.812;9.118;2023-04-01T05:02:21;8.30;99.90
12827;DHT22;66927;48.812;9.118;2023-04-01T05:04:47;8.20;99.90
12827;DHT22;66927;48.812;9.118;2023-04-01T05:07:12;8.20;99.90
12827;DHT22;66927;48.812;9.118;2023-04-01T05:09:38;8.20;99.90
12827;DHT22;66927;48.812;9.118;2023-04-01T05:12:04;8.10;99.90
12827;DHT22;66927;48.812;9.118;2023-04-01T05:14:29;8.10;99.90
12827;DHT22;66927;48.812;9.118;2023-04-01T05:16:55;8.10;99.90
12827;DHT22;66927;48.812;9.118;2023-04-01T05:19:21;8.20;99.90
12827;DHT22;66927;48.812;9.118;2023-04-01T05:21:46;8.20;99.90
12827;DHT22;66927;48.812;9.118;2023-04-01T05:24:12;8.10;99.90
12827;DHT22;66927;48.812;9.118;2023-04-01T05:26:38;8.10;99.90
12827;DHT22;66927;48.812;9.118;2023-04-01T05:29:04;8.10;99.90
12827;DHT22;66927;48.812;9.118;2023-04-01T05:31:30;8.10;99.90
12827;DHT22;66927;48.812;9.118;2023-04-01T05:33:56;8.10;99.90
12827;DHT22;66927;48.812;9.118;2023-04-01T05:36:21;8.20;99.90
12827;DHT22;66927;48.812;9.118;2023-04-01T05:38:47;8.30;99.90
12827;DHT22;66927;48.812;9.118;2023-04-01T05:41:14;8.30;99.90
12827;DHT22;66927;48.812;9.118;2023-04-01T05:43:40;8.30;99.90
12827;DHT22;66927;48.812;9.118;2023-04-01T05:46:06;8.40;99.90
12827;DHT22;66927;48.812;9.118;2023-04-01T05:48:33;8.40;99.90
12827;DHT22;66927;48.812;9.118;2023-04-01T05:51:00;8.50;99.90
12827;DHT22;66927;48.812;9.118;2023-04-01T05:53:26;8.50;99.90
12827;DHT22;66927;48.812;9.118;2023-04-01T05:55:52;8.50;99.90
12827;DHT22;66927;48.812;9.118;2023-04-01T05:58:17;8.60;99.90
12827;DHT22;66927;48.812;9.118;2023-04-01T06:00:43;8.60;99.90
12827;DHT22;66927;48.812;9.118;2023-04-01T06:03:09;8.70;99.90
12827;DHT22;66927;48.812;9.118;2023-04-01T06:05:44;8.70;99.90
12827;DHT22;66927;48.812;9.118;2023-04-01T06:08:17;8.80;99.90
12827;DHT22;66927;48.812;9.118;2023-04-01T06:10:58;8.90;99.90
12827;DHT22;66927;48.812;9.118;2023-04-01T06:25:38;9.00;99.90
12827;DHT22;66927;48.812;9.118;2023-04-01T06:36:36;9.20;99.90
12827;DHT22;66927;48.812;9.118;2023-04-01T06:41:59;9.20;99.90
12827;DHT22;66927;48.812;9.118;2023-04-01T06:50:03;9.40;99.90
12827;DHT22;66927;48.812;9.118;2023-04-01T07:01:57;9.40;99.90
12827;DHT22;66927;48.812;9.118;2023-04-01T07:04:33;9.50;99.90
12827;DHT22;66927;48.812;9.118;2023-04-01T07:07:25;9.40;99.90
12827;DHT22;66927;48.812;9.118;2023-04-01T07:09:55;9.60;99.90
12827;DHT22;66927;48.812;9.118;2023-04-01T07:14:56;9.60;99.90
12827;DHT22;66927;48.812;9.118;2023-04-01T07:17:33;9.50;99.90
12827;DHT22;66927;48.812;9.118;2023-04-01T07:20:10;9.50;99.90
12827;DHT22;66927;48.812;9.118;2023-04-01T07:22:40;9.50;99.90
12827;DHT22;66927;48.812;9.118;2023-04-01T07:25:14;9.60;99.90
12827;DHT22;66927;48.812;9.118;2023-04-01T07:27:42;9.50;99.90
12827;DHT22;66927;48.812;9.118;2023-04-01T07:30:17;9.50;99.90
12827;DHT22;66927;48.812;9.118;2023-04-01T07:35:43;9.70;99.90
12827;DHT22;66927;48.812;9.118;2023-04-01T07:41:12;9.80;99.90
12827;DHT22;66927;48.812;9.118;2023-04-01T07:49:01;9.80;99.90
12827;DHT22;66927;48.812;9.118;2023-04-01T07:51:50;9.80;99.90
12827;DHT22;66927;48.812;9.118;2023-04-01T07:54:34;9.80;99.90
12827;DHT22;66927;48.812;9.118;2023-04-01T07:59:45;10.00;99.90
12827;DHT22;66927;48.812;9.118;2023-04-01T08:11:10;10.10;99.90
12827;DHT22;66927;48.812;9.118;2023-04-01T08:16:31;10.10;99.90
12827;DHT22;66927;48.812;9.118;2023-04-01T08:19:26;10.10;99.90
12827;DHT22;66927;48.812;9.118;2023-04-01T08:22:00;10.10;99.90
12827;DHT22;66927;48.812;9.118;2023-04-01T08:24:38;10.10;99.90
12827;DHT22;66927;48.812;9.118;2023-04-01T08:27:21;10.20;99.90
12827;DHT22;66927;48.812;9.118;2023-04-01T08:30:19;10.20;99.90
12827;DHT22;66927;48.812;9.118;2023-04-01T08:44:44;10.10;99.90
12827;DHT22;66927;48.812;9.118;2023-04-01T08:55:56;9.50;99.90
12827;DHT22;66927;48.812;9.118;2023-04-01T09:04:22;9.50;99.90
12827;DHT22;66927;48.812;9.118;2023-04-01T09:10:22;9.60;99.90
12827;DHT22;66927;48.812;9.118;2023-04-01T09:13:35;9.70;99.90
12827;DHT22;66927;48.812;9.118;2023-04-01T09:30:38;10.40;99.90
12827;DHT22;66927;48.812;9.118;2023-04-01T09:38:59;10.90;99.90
12827;DHT22;66927;48.812;9.118;2023-04-01T09:47:07;10.70;99.90
12827;DHT22;66927;48.812;9.118;2023-04-01T09:49:46;10.60;99.90
12827;DHT22;66927;48.812;9.118;2023-04-01T09:55:00;10.60;99.90
12827;DHT22;66927;48.812;9.118;2023-04-01T10:29:03;11.80;99.90
12827;DHT22;66927;48.812;9.118;2023-04-01T10:56:58;11.20;99.90
12827;DHT22;66927;48.812;9.118;2023-04-01T11:02:45;11.20;99.90
12827;DHT22;66927;48.812;9.118;2023-04-01T11:22:36;12.60;99.90
12827;DHT22;66927;48.812;9.118;2023-04-01T11:28:14;12.90;99.90
12827;DHT22;66927;48.812;9.118;2023-04-01T11:31:04;13.00;99.90
12827;DHT22;66927;48.812;9.118;2023-04-01T11:34:13;13.20;99.90
12827;DHT22;66927;48.812;9.118;2023-04-01T11:51:15;12.30;99.90
12827;DHT22;66927;48.812;9.118;2023-04-01T11:57:04;12.40;99.90
12827;DHT22;66927;48.812;9.118;2023-04-01T12:11:16;11.50;99.90
12827;DHT22;66927;48.812;9.118;2023-04-01T12:13:53;11.70;99.90
12827;DHT22;66927;48.812;9.118;2023-04-01T12:16:39;11.70;99.90
12827;DHT22;66927;48.812;9.118;2023-04-01T12:19:35;11.70;99.90
12827;DHT22;66927;48.812;9.118;2023-04-01T12:56:05;12.60;99.90
12827;DHT22;66927;48.812;9.118;2023-04-01T13:17:21;12.40;99.90
12827;DHT22;66927;48.812;9.118;2023-04-01T13:25:24;12.10;99.90
12827;DHT22;66927;48.812;9.118;2023-04-01T13:28:07;12.20;99.90
12827;DHT22;66927;48.812;9.118;2023-04-01T13:31:05;12.40;99.90
12827;DHT22;66927;48.812;9.118;2023-04-01T13:42:31;12.20;99.90
12827;DHT22;66927;48.812;9.118;2023-04-01T13:45:23;12.30;99.90
12827;DHT22;66927;48.812;9.118;2023-04-01T13:48:07;12.30;99.90
12827;DHT22;66927;48.812;9.118;2023-04-01T13:51:18;12.00;99.90
12827;DHT22;66927;48.812;9.118;2023-04-01T14:02:14;12.50;99.90
12827;DHT22;66927;48.812;9.118;2023-04-01T14:14:06;12.30;99.90
12827;DHT22;66927;48.812;9.118;2023-04-01T14:28:35;12.40;99.90
12827;DHT22;66927;48.812;9.118;2023-04-01T14:50:44;12.00;99.90
12827;DHT22;66927;48.812;9.118;2023-04-01T14:53:27;11.90;99.90
12827;DHT22;66927;48.812;9.118;2023-04-01T14:56:01;11.90;99.90
12827;DHT22;66927;48.812;9.118;2023-04-01T14:58:49;11.80;99.90
12827;DHT22;66927;48.812;9.118;2023-04-01T15:12:34;11.50;99.90
12827;DHT22;66927;48.812;9.118;2023-04-01T15:18:15;11.50;99.90
12827;DHT22;66927;48.812;9.118;2023-04-01T15:31:40;11.40;99.90
12827;DHT22;66927;48.812;9.118;2023-04-01T15:37:04;11.60;99.90
12827;DHT22;66927;48.812;9.118;2023-04-01T15:39:50;11.50;99.90
12827;DHT22;66927;48.812;9.118;2023-04-01T15:42:41;11.60;99.90
12827;DHT22;66927;48.812;9.118;2023-04-01T15:53:35;11.70;99.90
12827;DHT22;66927;48.812;9.118;2023-04-01T16:10:49;11.30;99.90
12827;DHT22;66927;48.812;9.118;2023-04-01T16:13:46;11.40;99.90
12827;DHT22;66927;48.812;9.118;2023-04-01T16:22:09;11.20;99.90
12827;DHT22;66927;48.812;9.118;2023-04-01T16:25:33;11.10;99.90
12827;DHT22;66927;48.812;9.118;2023-04-01T16:27:37;11.00;99.90
12827;DHT22;66927;48.812;9.118;2023-04-01T16:30:26;11.00;99.90
12827;DHT22;66927;48.812;9.118;2023-04-01T16:33:19;11.00;99.90
12827;DHT22;66927;48.812;9.118;2023-04-01T16:41:29;10.90;99.90
12827;DHT22;66927;48.812;9.118;2023-04-01T16:44:08;10.90;99.90
12827;DHT22;66927;48.812;9.118;2023-04-01T16:46:41;10.90;99.90
12827;DHT22;66927;48.812;9.118;2023-04-01T16:54:35;11.10;99.90
12827;DHT22;66927;48.812;9.118;2023-04-01T17:00:02;10.90;99.90
12827;DHT22;66927;48.812;9.118;2023-04-01T17:02:38;11.00;99.90
12827;DHT22;66927;48.812;9.118;2023-04-01T17:05:11;11.00;99.90
12827;DHT22;66927;48.812;9.118;2023-04-01T17:13:18;11.00;99.90
12827;DHT22;66927;48.812;9.118;2023-04-01T17:26:45;10.90;99.90
12827;DHT22;66927;48.812;9.118;2023-04-01T17:29:19;10.70;99.90
12827;DHT22;66927;48.812;9.118;2023-04-01T17:34:39;10.70;99.90
12827;DHT22;66927;48.812;9.118;2023-04-01T17:40:18;10.70;99.90
12827;DHT22;66927;48.812;9.118;2023-04-01T17:42:52;10.60;99.90
12827;DHT22;66927;48.812;9.118;2023-04-01T17:45:21;10.50;99.90
12827;DHT22;66927;48.812;9.118;2023-04-01T17:50:24;10.40;99.90
12827;DHT22;66927;48.812;9.118;2023-04-01T17:53:03;10.40;99.90
12827;DHT22;66927;48.812;9.118;2023-04-01T18:01:23;10.30;99.90
12827;DHT22;66927;48.812;9.118;2023-04-01T18:20:24;10.10;99.90
12827;DHT22;66927;48.812;9.118;2023-04-01T18:23:02;10.10;99.90
12827;DHT22;66927;48.812;9.118;2023-04-01T18:25:37;10.20;99.90
12827;DHT22;66927;48.812;9.118;2023-04-01T18:28:17;10.10;99.90
12827;DHT22;66927;48.812;9.118;2023-04-01T18:30:55;10.10;99.90
12827;DHT22;66927;48.812;9.118;2023-04-01T18:36:38;10.00;99.90
12827;DHT22;66927;48.812;9.118;2023-04-01T18:39:38;9.80;99.90
12827;DHT22;66927;48.812;9.118;2023-04-01T18:45:17;9.60;99.90
12827;DHT22;66927;48.812;9.118;2023-04-01T18:53:13;9.30;99.90
12827;DHT22;66927;48.812;9.118;2023-04-01T18:55:47;9.40;99.90
12827;DHT22;66927;48.812;9.118;2023-04-01T18:58:42;9.30;99.90
12827;DHT22;66927;48.812;9.118;2023-04-01T19:04:01;9.20;99.90
12827;DHT22;66927;48.812;9.118;2023-04-01T19:06:33;9.20;99.90
12827;DHT22;66927;48.812;9.118;2023-04-01T19:09:15;9.10;99.90
12827;DHT22;66927;48.812;9.118;2023-04-01T19:20:29;8.80;99.90
12827;DHT22;66927;48.812;9.118;2023-04-01T19:26:09;8.80;99.90
12827;DHT22;66927;48.812;9.118;2023-04-01T19:28:52;8.90;99.90
12827;DHT22;66927;48.812;9.118;2023-04-01T19:37:40;8.90;99.90
12827;DHT22;66927;48.812;9.118;2023-04-01T19:43:01;8.90;99.90
12827;DHT22;66927;48.812;9.118;2023-04-01T19:45:34;8.90;99.90
12827;DHT22;66927;48.812;9.118;2023-04-01T19:51:09;8.80;99.90
12827;DHT22;66927;48.812;9.118;2023-04-01T19:56:23;8.90;99.90
12827;DHT22;66927;48.812;9.118;2023-04-01T19:59:05;8.90;99.90
12827;DHT22;66927;48.812;9.118;2023-04-01T20:01:57;8.80;99.90
12827;DHT22;66927;48.812;9.118;2023-04-01T20:04:50;8.90;99.90
12827;DHT22;66927;48.812;9.118;2023-04-01T20:07:23;9.00;99.90
12827;DHT22;66927;48.812;9.118;2023-04-01T20:10:10;8.90;99.90
12827;DHT22;66927;48.812;9.118;2023-04-01T20:15:30;9.00;99.90
12827;DHT22;66927;48.812;9.118;2023-04-01T20:18:00;9.00;99.90
12827;DHT22;66927;48.812;9.118;2023-04-01T20:20:28;9.00;99.90
12827;DHT22;66927;48.812;9.118;2023-04-01T20:25:58;9.10;99.90
12827;DHT22;66927;48.812;9.118;2023-04-01T20:28:37;9.10;99.90
12827;DHT22;66927;48.812;9.118;2023-04-01T20:31:42;9.10;99.90
12827;DHT22;66927;48.812;9.118;2023-04-01T20:45:53;9.00;99.90
12827;DHT22;66927;48.812;9.118;2023-04-01T20:50:58;9.10;99.90
12827;DHT22;66927;48.812;9.118;2023-04-01T20:53:54;9.00;99.90
12827;DHT22;66927;48.812;9.118;2023-04-01T20:56:25;9.00;99.90
12827;DHT22;66927;48.812;9.118;2023-04-01T20:59:24;9.00;99.90
12827;DHT22;66927;48.812;9.118;2023-04-01T21:07:49;9.10;99.90
12827;DHT22;66927;48.812;9.118;2023-04-01T21:10:57;9.10;99.90
12827;DHT22;66927;48.812;9.118;2023-04-01T21:16:52;9.00;99.90
12827;DHT22;66927;48.812;9.118;2023-04-01T21:39:25;8.90;99.90
12827;DHT22;66927;48.812;9.118;2023-04-01T21:42:19;8.90;99.90
12827;DHT22;66927;48.812;9.118;2023-04-01T22:05:15;8.70;99.90
12827;DHT22;66927;48.812;9.118;2023-04-01T22:07:55;8.60;99.90
12827;DHT22;66927;48.812;9.118;2023-04-01T22:10:37;8.60;99.90
12827;DHT22;66927;48.812;9.118;2023-04-01T22:13:17;8.60;99.90
12827;DHT22;66927;48.812;9.118;2023-04-01T22:18:33;8.50;99.90
12827;DHT22;66927;48.812;9.118;2023-04-01T22:26:37;8.60;99.90
12827;DHT22;66927;48.812;9.118;2023-04-01T22:29:23;8.60;99.90
12827;DHT22;66927;48.812;9.118;2023-04-01T22:32:18;8.60;99.90
12827;DHT22;66927;48.812;9.118;2023-04-01T22:37:33;8.70;99.90
12827;DHT22;66927;48.812;9.118;2023-04-01T22:40:35;8.80;99.90
12827;DHT22;66927;48.812;9.118;2023-04-01T22:43:10;8.70;99.90
12827;DHT22;66927;48.812;9.118;2023-04-01T22:45:50;8.70;99.90
12827;DHT22;66927;48.812;9.118;2023-04-01T22:54:04;8.90;99.90
12827;DHT22;66927;48.812;9.118;2023-04-01T22:56:46;8.80;99.90
12827;DHT22;66927;48.812;9.118;2023-04-01T22:59:42;8.70;99.90
12827;DHT22;66927;48.812;9.118;2023-04-01T23:02:14;8.70;99.90
12827;DHT22;66927;48.812;9.118;2023-04-01T23:04:43;8.60;99.90
12827;DHT22;66927;48.812;9.118;2023-04-01T23:09:50;8.60;99.90
12827;DHT22;66927;48.812;9.118;2023-04-01T23:12:19;8.60;99.90
12827;DHT22;66927;48.812;9.118;2023-04-01T23:14:52;8.60;99.90
12827;DHT22;66927;48.812;9.118;2023-04-01T23:17:36;8.50;99.90
12827;DHT22;66927;48.812;9.118;2023-04-01T23:23:26;8.70;99.90
12827;DHT22;66927;48.812;9.118;2023-04-01T23:25:48;8.60;99.90
12827;DHT22;66927;48.812;9.118;2023-04-01T23:35:51;8.70;99.90
12827;DHT22;66927;48.812;9.118;2023-04-01T23:38:20;8.60;99.90
12827;DHT22;66927;48.812;9.118;2023-04-01T23:40:49;8.70;99.90
12827;DHT22;66927;48.812;9.118;2023-04-01T23:43:33;8.60;99.90
12827;DHT22;66927;48.812;9.118;2023-04-01T23:46:03;8.60;99.90
12827;DHT22;66927;48.812;9.118;2023-04-01T23:48:42;8.60;99.90
12827;DHT22;66927;48.812;9.118;2023-04-01T23:51:27;8.60;99.90
12827;DHT22;66927;48.812;9.118;2023-04-01T23:54:18;8.60;99.90
12827;DHT22;66927;48.812;9.118;2023-04-01T23:56:48;8.60;99.90
12827;DHT22;66927;48.812;9.118;2023-04-01T23:59:18;8.60;99.90
